createdAt,value
2023-05-02T00:02:18.816Z,19.30
2023-05-02T00:07:22.198Z,19.63
2023-05-02T00:12:25.697Z,18.92
2023-05-02T00:22:33.769Z,18.88
2023-05-02T00:27:37.209Z,19.53
2023-05-02T00:32:42.116Z,20.27
2023-05-02T00:37:45.610Z,20.23
2023-05-02T00:42:48.998Z,20.63
2023-05-02T00:47:53.897Z,21.50
2023-05-02T00:52:57.490Z,22.95
2023-05-02T00:58:01.215Z,21.83
2023-05-02T01:03:17.002Z,22.15
2023-05-02T01:08:31.499Z,22.83
2023-05-02T01:13:37.351Z,22.67
2023-05-02T01:18:43.728Z,23.40
2023-05-02T01:23:54.663Z,22.38
2023-05-02T01:29:01.328Z,21.67
2023-05-02T01:34:08.077Z,21.23
2023-05-02T01:39:12.305Z,20.85
2023-05-02T01:44:18.338Z,21.95
2023-05-02T01:49:24.594Z,22.00
2023-05-02T01:54:28.650Z,21.58
2023-05-02T01:59:35.544Z,22.57
2023-05-02T02:04:40.899Z,23.52
2023-05-02T02:09:46.642Z,23.57
2023-05-02T02:14:58.087Z,26.70
2023-05-02T02:20:04.544Z,27.50
2023-05-02T02:25:11.644Z,27.63
2023-05-02T02:30:17.186Z,26.25
2023-05-02T02:35:21.240Z,27.02
2023-05-02T02:40:31.126Z,26.20
2023-05-02T02:45:40.244Z,24.98
2023-05-02T02:50:53.546Z,24.50
2023-05-02T02:56:01.798Z,25.00
2023-05-02T03:01:10.887Z,25.67
2023-05-02T03:06:15.511Z,25.37
2023-05-02T03:11:19.280Z,24.40
2023-05-02T03:16:42.884Z,25.23
2023-05-02T03:21:51.240Z,24.60
2023-05-02T03:26:57.520Z,25.75
2023-05-02T03:32:06.095Z,26.98
2023-05-02T03:37:10.417Z,29.58
2023-05-02T03:42:14.122Z,26.75
2023-05-02T03:47:19.509Z,25.73
2023-05-02T03:52:23.320Z,25.03
2023-05-02T03:57:31.702Z,25.00
2023-05-02T04:02:37.352Z,27.83
2023-05-02T04:07:42.711Z,23.15
2023-05-02T04:12:46.510Z,23.75
2023-05-02T04:17:52.342Z,24.42
2023-05-02T04:22:57.414Z,24.42
2023-05-02T04:28:02.021Z,23.33
2023-05-02T04:33:08.000Z,22.37
2023-05-02T04:38:13.710Z,22.60
2023-05-02T04:43:19.549Z,21.97
2023-05-02T04:48:28.787Z,23.13
2023-05-02T04:53:32.277Z,25.00
2023-05-02T04:58:36.348Z,25.85
2023-05-02T05:03:45.377Z,29.05
2023-05-02T05:08:50.751Z,28.48
2023-05-02T05:13:54.195Z,27.57
2023-05-02T05:19:00.079Z,26.73
2023-05-02T05:24:03.557Z,28.75
2023-05-02T05:29:07.815Z,28.30
2023-05-02T05:34:18.205Z,27.05
2023-05-02T05:39:25.607Z,26.10
2023-05-02T05:44:31.768Z,24.52
2023-05-02T05:49:38.834Z,28.60
2023-05-02T05:54:45.198Z,26.92
2023-05-02T05:59:48.986Z,25.27
2023-05-02T06:04:54.811Z,26.97
2023-05-02T06:10:01.244Z,27.15
2023-05-02T06:15:08.300Z,26.05
2023-05-02T06:20:14.408Z,25.43
2023-05-02T06:25:19.022Z,24.30
2023-05-02T06:30:22.418Z,22.80
2023-05-02T06:35:27.151Z,22.95
2023-05-02T06:40:30.476Z,21.20
2023-05-02T06:45:33.792Z,21.77
2023-05-02T06:50:38.570Z,20.67
2023-05-02T06:55:42.246Z,18.77
2023-05-02T07:00:45.729Z,20.02
2023-05-02T07:05:50.724Z,17.90
2023-05-02T07:10:54.003Z,14.63
2023-05-02T07:15:57.391Z,15.57
2023-05-02T07:21:02.371Z,13.60
2023-05-02T07:26:07.154Z,12.77
2023-05-02T07:31:10.468Z,12.60
2023-05-02T07:36:15.196Z,11.87
2023-05-02T07:41:18.600Z,11.32
2023-05-02T07:46:22.163Z,10.57
2023-05-02T07:51:27.341Z,9.38
2023-05-02T07:56:31.621Z,9.53
2023-05-02T08:01:34.974Z,9.70
2023-05-02T08:06:39.874Z,11.32
2023-05-02T08:11:43.415Z,10.88
2023-05-02T08:16:46.922Z,10.23
2023-05-02T08:21:51.780Z,10.25
2023-05-02T08:26:55.121Z,9.50
2023-05-02T08:31:58.674Z,10.38
2023-05-02T08:37:03.414Z,9.00
2023-05-02T08:42:08.927Z,8.88
2023-05-02T08:47:15.031Z,9.30
2023-05-02T08:52:22.307Z,7.53
2023-05-02T08:57:26.509Z,7.70
2023-05-02T09:02:46.255Z,7.45
2023-05-02T09:07:54.008Z,7.45
2023-05-02T09:12:57.332Z,7.82
2023-05-02T09:18:00.816Z,8.13
2023-05-02T09:23:05.653Z,7.63
2023-05-02T09:28:09.057Z,7.00
2023-05-02T09:33:14.483Z,6.13
2023-05-02T09:38:22.255Z,6.03
2023-05-02T09:43:25.651Z,6.27
2023-05-02T09:48:30.228Z,5.90
2023-05-02T09:53:44.542Z,5.15
2023-05-02T09:58:47.944Z,6.00
2023-05-02T10:03:51.301Z,5.57
2023-05-02T10:08:56.071Z,5.00
2023-05-02T10:14:00.126Z,4.90
2023-05-02T10:19:08.737Z,5.22
2023-05-02T10:24:14.381Z,5.20
2023-05-02T10:29:18.021Z,5.63
2023-05-02T10:34:21.816Z,6.03
2023-05-02T10:39:26.890Z,6.18
2023-05-02T10:44:35.013Z,6.13
2023-05-02T10:49:51.247Z,5.63
2023-05-02T10:55:17.691Z,5.45
2023-05-02T11:00:24.885Z,5.68
2023-05-02T11:05:29.385Z,6.47
2023-05-02T11:10:34.216Z,5.47
2023-05-02T11:15:57.930Z,4.90
2023-05-02T11:21:32.849Z,5.32
2023-05-02T11:26:39.505Z,5.07
2023-05-02T11:32:05.047Z,5.65
2023-05-02T11:37:15.718Z,5.40
2023-05-02T11:42:33.192Z,5.30
2023-05-02T11:47:36.645Z,4.28
2023-05-02T11:52:40.859Z,4.15
2023-05-02T11:57:45.552Z,4.70
2023-05-02T12:02:49.122Z,4.85
2023-05-02T12:07:53.025Z,5.43
2023-05-02T12:13:06.019Z,4.82
2023-05-02T12:18:09.962Z,5.00
2023-05-02T12:23:13.629Z,4.53
2023-05-02T12:28:19.566Z,4.20
2023-05-02T12:33:22.893Z,4.50
2023-05-02T12:38:26.976Z,4.18
2023-05-02T12:43:47.189Z,4.45
2023-05-02T12:49:03.352Z,4.20
2023-05-02T12:54:07.208Z,3.77
2023-05-02T12:59:26.991Z,3.63
2023-05-02T13:04:37.450Z,2.90
2023-05-02T13:09:40.845Z,2.75
2023-05-02T13:14:45.786Z,3.03
2023-05-02T13:20:01.475Z,3.83
2023-05-02T13:25:06.556Z,4.15
2023-05-02T13:30:13.007Z,3.83
2023-05-02T13:35:16.971Z,3.75
2023-05-02T13:40:20.949Z,3.50
2023-05-02T13:45:25.740Z,3.90
2023-05-02T13:50:29.184Z,3.40
2023-05-02T13:55:32.574Z,3.10
2023-05-02T14:00:37.338Z,3.70
2023-05-02T14:05:43.667Z,3.47
2023-05-02T14:10:47.154Z,3.00
2023-05-02T14:15:51.898Z,2.60
2023-05-02T14:20:55.601Z,3.22
2023-05-02T14:25:58.970Z,2.88
2023-05-02T14:31:03.837Z,2.87
2023-05-02T14:36:07.405Z,2.72
2023-05-02T14:41:11.317Z,3.20
2023-05-02T14:46:16.500Z,2.80
2023-05-02T14:51:19.900Z,2.40
2023-05-02T14:56:23.526Z,2.40
2023-05-02T15:01:29.179Z,2.30
2023-05-02T15:06:32.815Z,1.90
2023-05-02T15:11:36.843Z,2.40
2023-05-02T15:16:41.577Z,2.47
2023-05-02T15:21:45.240Z,2.53
2023-05-02T15:26:49.332Z,2.30
2023-05-02T15:31:54.754Z,1.77
2023-05-02T15:37:01.286Z,2.47
2023-05-02T15:42:05.792Z,2.40
2023-05-02T15:47:10.555Z,2.17
2023-05-02T15:52:14.264Z,2.77
2023-05-02T15:57:17.759Z,2.70
2023-05-02T16:02:22.937Z,2.75
2023-05-02T16:07:26.467Z,3.58
2023-05-02T16:12:29.835Z,4.80
2023-05-02T16:17:34.571Z,5.93
2023-05-02T16:22:37.984Z,6.40
2023-05-02T16:27:41.370Z,6.50
2023-05-02T16:32:46.382Z,7.13
2023-05-02T16:37:50.173Z,8.20
2023-05-02T16:42:56.448Z,7.87
2023-05-02T16:48:01.214Z,6.87
2023-05-02T16:53:05.455Z,6.97
2023-05-02T16:58:09.535Z,5.97
2023-05-02T17:03:14.895Z,5.90
2023-05-02T17:08:18.942Z,5.70
2023-05-02T17:13:22.453Z,6.13
2023-05-02T17:18:27.560Z,6.30
2023-05-02T17:23:31.036Z,6.43
2023-05-02T17:28:36.725Z,6.53
2023-05-02T17:33:42.323Z,6.47
2023-05-02T17:38:45.851Z,4.70
2023-05-02T17:43:49.666Z,7.33
2023-05-02T17:48:54.391Z,8.40
2023-05-02T17:53:57.715Z,8.23
2023-05-02T17:59:01.634Z,8.02
2023-05-02T18:04:06.696Z,7.27
2023-05-02T18:09:10.122Z,7.10
2023-05-02T18:14:16.497Z,7.18
2023-05-02T18:19:23.454Z,8.73
2023-05-02T18:24:26.993Z,12.07
2023-05-02T18:29:31.263Z,13.63
2023-05-02T18:34:38.466Z,10.80
2023-05-02T18:39:42.513Z,12.23
2023-05-02T18:44:45.832Z,26.00
2023-05-02T18:49:50.623Z,16.05
2023-05-02T18:54:53.961Z,11.60
2023-05-02T18:59:58.923Z,9.43
2023-05-02T19:05:06.832Z,14.60
2023-05-02T19:10:11.329Z,15.70
2023-05-02T19:15:16.237Z,9.00
2023-05-02T19:20:21.214Z,7.88
2023-05-02T19:25:24.681Z,8.37
2023-05-02T19:30:28.087Z,9.02
2023-05-02T19:35:35.332Z,8.25
2023-05-02T19:40:38.624Z,8.73
2023-05-02T19:45:42.035Z,9.45
2023-05-02T19:50:46.889Z,9.25
2023-05-02T19:55:50.548Z,8.10
2023-05-02T20:00:53.887Z,8.20
2023-05-02T20:05:58.844Z,8.07
2023-05-02T20:11:02.335Z,8.25
2023-05-02T20:16:06.861Z,7.82
2023-05-02T20:21:11.563Z,8.32
2023-05-02T20:26:16.488Z,8.57
2023-05-02T20:31:19.820Z,9.07
2023-05-02T20:36:24.660Z,9.02
2023-05-02T20:41:28.274Z,8.88
2023-05-02T20:46:36.082Z,8.43
2023-05-02T20:51:40.996Z,8.10
2023-05-02T20:56:44.951Z,8.05
2023-05-02T21:01:48.835Z,8.07
2023-05-02T21:06:55.116Z,9.80
2023-05-02T21:11:58.509Z,8.90
2023-05-02T21:17:02.037Z,10.00
2023-05-02T21:22:07.065Z,11.30
2023-05-02T21:27:10.548Z,11.80
2023-05-02T21:32:14.181Z,15.10
2023-05-02T21:37:19.058Z,16.30
2023-05-02T21:42:22.673Z,14.88
2023-05-02T21:47:26.086Z,13.88
2023-05-02T21:52:31.880Z,14.67
2023-05-02T21:57:35.357Z,12.55
2023-05-02T22:02:39.916Z,16.40
2023-05-02T22:07:44.800Z,16.90
2023-05-02T22:12:48.446Z,15.35
2023-05-02T22:17:52.274Z,14.47
2023-05-02T22:22:57.256Z,13.95
2023-05-02T22:28:03.446Z,13.88
2023-05-02T22:33:07.619Z,12.50
2023-05-02T22:38:16.642Z,13.63
2023-05-02T22:43:20.180Z,11.40
2023-05-02T22:48:23.570Z,9.60
2023-05-02T22:53:28.423Z,10.23
2023-05-02T22:58:31.775Z,12.65
2023-05-02T23:03:35.309Z,11.73
2023-05-02T23:08:40.379Z,12.10
2023-05-02T23:13:43.852Z,12.15
2023-05-02T23:18:48.587Z,11.20
2023-05-02T23:23:53.487Z,12.25
2023-05-02T23:28:56.923Z,12.17
2023-05-02T23:34:01.821Z,12.50
2023-05-02T23:39:06.797Z,11.73
2023-05-02T23:44:10.428Z,12.23
2023-05-02T23:49:13.960Z,12.03
2023-05-02T23:54:18.833Z,10.97
2023-05-02T23:59:22.507Z,11.27
